Tasman Sea — WDB5559 — position and weather

sailwx.info

Track history (hours):
 
Tides and Currents Weather Stations Pressure Air Temp Water Temp Dewpoint Dewpoint Depression Visibility Wind Speed Wind Dir Waves Ship Positions

Tasman Sea

Owner: Kirby Offshore Marine, LLC, Staten Island, NY. More information available from US FCC via Universal Licensing System and Coast Guard Vessel Documentation Center.

Last reported at 2017-Jun-28 21:02 UTC. Time now 2017-Jun-29 03:39 UTC.
Position N 40°29' W 074°08'.

Length 151 m; draft 6.7 m.

Type: . MMSI: 366910960.

Date/timePositionNaut miles runAvg speedWind from/ knotsBaromVisibWave heightAir tempDewpointWater temp
2017-Jun-28 21:02N 40°29' W 074°08'0 0.1
2017-Jun-28 20:47N 40°29' W 074°08'3 6.7
2017-Jun-28 20:23N 40°29' W 074°05'2 5.1
2017-Jun-28 19:59N 40°30' W 074°03'4 8.5
2017-Jun-28 19:30N 40°34' W 074°02'5 9.3
2017-Jun-28 19:00N 40°39' W 074°03'1 1.7
2017-Jun-28 18:31N 40°39' W 074°03'2 3.8
2017-Jun-28 18:00N 40°39' W 074°05'4 7.2
2017-Jun-28 17:30N 40°39' W 074°10'0 0.0
2017-Jun-28 16:54N 40°39' W 074°10'0 0.0
2017-Jun-28 16:27N 40°39' W 074°10'0 0.0
2017-Jun-28 16:00N 40°39' W 074°10'0 0.0
2017-Jun-28 15:30N 40°39' W 074°10'0 0.0
2017-Jun-28 14:57N 40°39' W 074°10'0 0.0
2017-Jun-28 14:21N 40°39' W 074°10'0 0.0
2017-Jun-28 13:30N 40°39' W 074°10'0 0.0
2017-Jun-28 13:00N 40°39' W 074°10'0 0.0
2017-Jun-28 12:30N 40°39' W 074°10'0 0.0
2017-Jun-28 12:00N 40°39' W 074°10'0 0.0
2017-Jun-28 11:31N 40°39' W 074°10'0 0.4
2017-Jun-28 11:00N 40°38' W 074°10'4 8.5
2017-Jun-28 10:30N 40°39' W 074°04'1 2.1
2017-Jun-28 09:58N 40°39' W 074°03'0 0.0
2017-Jun-28 09:28N 40°39' W 074°03'0 0.0
2017-Jun-28 08:58N 40°39' W 074°03'0 0.0
2017-Jun-28 08:28N 40°39' W 074°03'0 0.0
2017-Jun-28 07:58N 40°39' W 074°03'0 0.0
2017-Jun-28 07:28N 40°39' W 074°03'0 0.0
2017-Jun-28 06:58N 40°39' W 074°03'0 0.1
2017-Jun-28 06:28N 40°39' W 074°03'0 0.2
2017-Jun-28 05:58N 40°39' W 074°03'0 0.1
2017-Jun-28 05:28N 40°39' W 074°03'0 0.1
2017-Jun-28 04:58N 40°40' W 074°03'0 0.1
2017-Jun-28 04:28N 40°40' W 074°03'0 0.0
2017-Jun-28 03:58N 40°40' W 074°03'0 0.0
2017-Jun-28 03:28N 40°40' W 074°03'0 0.1
2017-Jun-28 02:58N 40°40' W 074°03'0 0.0
2017-Jun-28 02:28N 40°40' W 074°03'0 0.2
2017-Jun-28 01:58N 40°39' W 074°03'0 0.1
2017-Jun-28 01:28N 40°39' W 074°03'0 0.2
2017-Jun-28 00:58N 40°39' W 074°03'0 0.1
2017-Jun-28 00:28N 40°39' W 074°03'0 0.0
2017-Jun-27 23:58N 40°39' W 074°03'0 0.1
2017-Jun-27 23:28N 40°39' W 074°03'0 0.1
2017-Jun-27 22:58N 40°39' W 074°03'0 0.0
2017-Jun-27 22:28N 40°39' W 074°03'0 0.1
2017-Jun-27 21:58N 40°39' W 074°03'0 0.0
2017-Jun-27 21:28N 40°39' W 074°03'0 0.0
2017-Jun-27 20:58N 40°39' W 074°03'0 0.1
2017-Jun-27 20:28N 40°39' W 074°03'0 0.1
2017-Jun-27 19:58N 40°39' W 074°03'0 0.3
2017-Jun-27 19:28N 40°39' W 074°03'0 0.1
2017-Jun-27 18:58N 40°40' W 074°03'0 0.1
2017-Jun-27 18:28N 40°40' W 074°03'0 0.0
2017-Jun-27 17:58N 40°40' W 074°03'0 0.1
2017-Jun-27 17:28N 40°40' W 074°03'0 0.0
2017-Jun-27 16:58N 40°40' W 074°03'0 0.1
2017-Jun-27 16:28N 40°40' W 074°03'0 0.1
2017-Jun-27 15:58N 40°40' W 074°03'0 0.0
2017-Jun-27 15:28N 40°40' W 074°03'0 0.1
2017-Jun-27 15:01N 40°40' W 074°03'0 0.0
2017-Jun-27 14:31N 40°40' W 074°03'5 5.3
2017-Jun-27 13:30N 40°38' W 074°09'0 0.0
2017-Jun-27 13:01N 40°38' W 074°10'0 0.2
2017-Jun-27 12:31N 40°38' W 074°09'2 3.2
2017-Jun-27 12:00N 40°38' W 074°12'1 2.2
2017-Jun-27 11:30N 40°38' W 074°12'0 0.0
2017-Jun-27 10:56N 40°38' W 074°12'0 0.0
2017-Jun-27 10:26N 40°38' W 074°12'0 0.0
2017-Jun-27 09:56N 40°38' W 074°12'0 0.0
2017-Jun-27 09:26N 40°38' W 074°12'0 0.0
2017-Jun-27 08:56N 40°38' W 074°12'0 0.0
2017-Jun-27 08:26N 40°38' W 074°12'0 0.0
2017-Jun-27 07:59N 40°38' W 074°12'0 0.0
2017-Jun-27 07:26N 40°38' W 074°12'0 0.0
2017-Jun-27 06:56N 40°38' W 074°12'0 0.0
2017-Jun-27 06:26N 40°38' W 074°12'0 0.0
2017-Jun-27 05:56N 40°38' W 074°12'0 0.0
2017-Jun-27 05:20N 40°38' W 074°12'0 0.0
2017-Jun-27 04:56N 40°38' W 074°12'0 0.0
2017-Jun-27 04:26N 40°38' W 074°12'0 0.0
2017-Jun-27 03:56N 40°38' W 074°12'1 2.0
2017-Jun-27 03:30N 40°38' W 074°12'1 2.8
2017-Jun-27 03:00N 40°39' W 074°10'0 0.0
2017-Jun-27 02:27N 40°39' W 074°10'0 0.0
2017-Jun-27 02:00N 40°39' W 074°10'0 0.0
2017-Jun-27 01:30N 40°39' W 074°10'0 0.0
2017-Jun-27 01:00N 40°39' W 074°10'0 0.0
2017-Jun-27 00:27N 40°39' W 074°10'0 0.0
2017-Jun-27 00:00N 40°39' W 074°10'0 0.0
2017-Jun-26 23:30N 40°39' W 074°10'0 0.0
2017-Jun-26 23:00N 40°39' W 074°10'0 0.0
2017-Jun-26 22:30N 40°39' W 074°10'0 0.1
2017-Jun-26 22:00N 40°38' W 074°10'0 0.0
2017-Jun-26 21:30N 40°38' W 074°10'0 0.0
2017-Jun-26 21:01N 40°38' W 074°10'0 0.0
2017-Jun-26 20:30N 40°38' W 074°10'0 0.0
2017-Jun-26 19:59N 40°38' W 074°10'0 0.0
2017-Jun-26 19:30N 40°38' W 074°10'0 0.0
2017-Jun-26 18:59N 40°38' W 074°10'0 0.0
2017-Jun-26 18:30N 40°38' W 074°10'0 0.0
2017-Jun-26 18:01N 40°38' W 074°10'0 0.0
2017-Jun-26 17:31N 40°38' W 074°10'0 0.1
2017-Jun-26 16:58N 40°39' W 074°10'0 0.0
2017-Jun-26 16:28N 40°39' W 074°10'0 0.0
2017-Jun-26 15:58N 40°39' W 074°10'0 0.0
2017-Jun-26 15:30N 40°39' W 074°10'2 4.0
2017-Jun-26 15:00N 40°38' W 074°12'0 0.1
2017-Jun-26 14:29N 40°38' W 074°12'0 0.0
2017-Jun-26 13:26N 40°38' W 074°12'0 0.0
2017-Jun-26 12:44N 40°38' W 074°12'0 0.0
2017-Jun-26 12:20N 40°38' W 074°12'0 0.0
2017-Jun-26 11:38N 40°38' W 074°12'0 0.0
2017-Jun-26 11:20N 40°38' W 074°12'0 0.0
2017-Jun-26 10:56N 40°38' W 074°12'0 0.0
2017-Jun-26 10:26N 40°38' W 074°12'0 0.0
2017-Jun-26 09:59N 40°38' W 074°12'0 0.0
2017-Jun-26 09:26N 40°38' W 074°12'0 0.0
2017-Jun-26 08:56N 40°38' W 074°12'0 0.0
2017-Jun-26 08:20N 40°38' W 074°12'0 0.0
2017-Jun-26 07:56N 40°38' W 074°12'0 0.0
2017-Jun-26 07:26N 40°38' W 074°12'0 0.0
2017-Jun-26 06:56N 40°38' W 074°12'0 0.0
2017-Jun-26 06:26N 40°38' W 074°12'0 0.0
2017-Jun-26 05:56N 40°38' W 074°12'0 0.0
2017-Jun-26 05:26N 40°38' W 074°12'0 0.0
2017-Jun-26 04:56N 40°38' W 074°12'0 0.0
2017-Jun-26 04:29N 40°38' W 074°12'0 0.0
2017-Jun-26 03:59N 40°38' W 074°12'0 0.0
2017-Jun-26 03:29N 40°38' W 074°12'0 0.0
2017-Jun-26 02:59N 40°38' W 074°12'0 0.0
2017-Jun-26 02:29N 40°38' W 074°12'0 0.0
2017-Jun-26 01:59N 40°38' W 074°12'0 0.0
2017-Jun-26 01:20N 40°38' W 074°12'0 0.0
2017-Jun-26 00:56N 40°38' W 074°12'0 0.0
2017-Jun-26 00:26N 40°38' W 074°12'0 0.0
2017-Jun-26 00:00N 40°38' W 074°12'0 0.0
2017-Jun-25 23:29N 40°38' W 074°12'0 0.0
2017-Jun-25 23:00N 40°38' W 074°12'0 0.0
2017-Jun-25 22:30N 40°38' W 074°12'0 0.0
2017-Jun-25 21:56N 40°38' W 074°12'1 3.0
2017-Jun-25 21:30N 40°39' W 074°11'3 6.6
2017-Jun-25 21:00N 40°39' W 074°07'4 7.2
2017-Jun-25 20:30N 40°40' W 074°02'0 0.3
2017-Jun-25 19:58N 40°40' W 074°02'0 0.0
2017-Jun-25 19:28N 40°40' W 074°02'0 0.0
2017-Jun-25 18:58N 40°40' W 074°02'0 0.0
2017-Jun-25 18:28N 40°40' W 074°02'0 0.1
2017-Jun-25 18:00N 40°40' W 074°02'1 2.8
2017-Jun-25 17:30N 40°39' W 074°03'2 4.0
2017-Jun-25 17:00N 40°37' W 074°03'0 0.1
2017-Jun-25 16:25N 40°37' W 074°03'0 0.4
2017-Jun-25 15:58N 40°37' W 074°03'0 0.2
2017-Jun-25 15:28N 40°37' W 074°03'0 0.0
2017-Jun-24 19:45N 40°37' W 074°03'0 0.2
2017-Jun-24 19:30N 40°37' W 074°03'0 0.1
2017-Jun-24 19:00N 40°36' W 074°03'1 2.2
2017-Jun-24 18:30N 40°38' W 074°03'2 4.3
2017-Jun-24 18:00N 40°40' W 074°03'0 0.1
2017-Jun-24 17:30N 40°40' W 074°02'0 0.1
2017-Jun-24 17:00N 40°40' W 074°02'0 0.1
2017-Jun-24 16:30N 40°40' W 074°02'0 0.0
2017-Jun-24 16:00N 40°40' W 074°02'0 0.0
2017-Jun-24 15:30N 40°40' W 074°02'0 0.0
2017-Jun-24 15:00N 40°40' W 074°02'0 0.2
2017-Jun-24 14:00N 40°40' W 074°02'0 0.1
2017-Jun-24 13:30N 40°40' W 074°02'0 0.1
2017-Jun-24 13:00N 40°40' W 074°02'0 0.0
2017-Jun-24 12:30N 40°40' W 074°02'0 0.1
2017-Jun-24 12:00N 40°40' W 074°02'0 0.3
2017-Jun-24 11:30N 40°40' W 074°03'0 0.1
2017-Jun-24 11:00N 40°40' W 074°03'0 0.0
2017-Jun-24 10:30N 40°40' W 074°03'0 0.1
2017-Jun-24 10:00N 40°40' W 074°03'0 0.1
2017-Jun-24 09:30N 40°40' W 074°03'0 0.1
2017-Jun-24 09:00N 40°40' W 074°03'0 0.0
2017-Jun-24 08:30N 40°40' W 074°03'0 0.0
2017-Jun-24 08:00N 40°40' W 074°03'0 0.0
2017-Jun-24 07:27N 40°40' W 074°03'0 0.0
2017-Jun-24 07:00N 40°40' W 074°03'0 0.0
2017-Jun-24 06:30N 40°40' W 074°03'0 0.0
2017-Jun-24 06:00N 40°40' W 074°03'0 0.0
2017-Jun-24 05:30N 40°40' W 074°03'0 0.1
2017-Jun-24 05:00N 40°40' W 074°03'0 0.0
2017-Jun-24 04:30N 40°40' W 074°03'0 0.0
2017-Jun-24 04:00N 40°40' W 074°03'0 0.4
2017-Jun-24 03:30N 40°40' W 074°02'0 0.1
2017-Jun-24 03:00N 40°40' W 074°02'0 0.0
2017-Jun-24 02:30N 40°40' W 074°02'0 0.0
2017-Jun-24 02:00N 40°40' W 074°02'0 0.1
2017-Jun-24 01:30N 40°40' W 074°02'0 0.0
2017-Jun-24 01:00N 40°40' W 074°02'0 0.0
2017-Jun-24 00:30N 40°40' W 074°02'0 0.0
2017-Jun-24 00:00N 40°40' W 074°02'0 0.1
2017-Jun-23 23:30N 40°40' W 074°02'0 0.0
2017-Jun-23 23:00N 40°40' W 074°02'0 0.0
2017-Jun-23 22:30N 40°40' W 074°02'0 0.0
2017-Jun-23 22:00N 40°40' W 074°02'0 0.1
2017-Jun-23 21:30N 40°40' W 074°02'0 0.3
2017-Jun-23 21:00N 40°40' W 074°02'0 0.1
2017-Jun-23 20:30N 40°40' W 074°03'0 0.1
2017-Jun-23 20:00N 40°40' W 074°02'0 0.0
2017-Jun-23 19:30N 40°40' W 074°02'0 0.1
2017-Jun-23 19:00N 40°40' W 074°03'0 0.0
2017-Jun-23 18:30N 40°40' W 074°03'0 0.0
2017-Jun-23 18:00N 40°40' W 074°03'0 0.0
2017-Jun-23 17:30N 40°40' W 074°03'0 0.1
2017-Jun-23 17:00N 40°40' W 074°03'0 0.1
2017-Jun-23 16:30N 40°40' W 074°03'0 0.1
2017-Jun-23 16:00N 40°40' W 074°03'0 0.0
2017-Jun-23 15:30N 40°40' W 074°03'0 0.4
2017-Jun-23 15:00N 40°40' W 074°03'0 0.1
2017-Jun-23 14:00N 40°40' W 074°02'0 0.0
2017-Jun-23 13:30N 40°40' W 074°02'0 0.0
2017-Jun-23 13:00N 40°40' W 074°02'0 0.1
2017-Jun-23 12:30N 40°40' W 074°02'0 0.0
2017-Jun-23 12:00N 40°40' W 074°02'0 0.0
2017-Jun-23 11:30N 40°40' W 074°02'0 0.0
2017-Jun-23 11:00N 40°40' W 074°02'0 0.1
2017-Jun-23 10:30N 40°40' W 074°03'0 0.2
2017-Jun-23 10:00N 40°40' W 074°03'0 0.2
2017-Jun-23 09:30N 40°40' W 074°03'0 0.0
2017-Jun-23 09:00N 40°40' W 074°03'0 0.1
2017-Jun-23 08:30N 40°40' W 074°03'0 0.0
2017-Jun-23 08:00N 40°40' W 074°03'0 0.1
2017-Jun-23 07:30N 40°40' W 074°03'0 0.1
2017-Jun-23 07:00N 40°40' W 074°03'0 0.0
2017-Jun-23 06:30N 40°40' W 074°03'0 0.0
2017-Jun-23 06:00N 40°40' W 074°03'0 0.0
2017-Jun-23 05:30N 40°40' W 074°03'0 0.0
2017-Jun-23 05:00N 40°40' W 074°03'0 0.0
2017-Jun-23 04:30N 40°40' W 074°03'0 0.0
2017-Jun-23 04:00N 40°40' W 074°03'0 0.0
2017-Jun-23 03:30N 40°40' W 074°03'0 0.0
2017-Jun-23 03:00N 40°40' W 074°03'0 0.3
2017-Jun-23 02:30N 40°40' W 074°03'0 0.2
2017-Jun-23 02:00N 40°40' W 074°02'0 0.1
2017-Jun-23 01:30N 40°40' W 074°02'0 0.0
2017-Jun-23 01:00N 40°40' W 074°02'0 0.1
2017-Jun-23 00:30N 40°40' W 074°02'0 0.0
2017-Jun-23 00:00N 40°40' W 074°02'0 0.0
2017-Jun-22 23:30N 40°40' W 074°02'0 0.0
2017-Jun-22 23:00N 40°40' W 074°02'0 0.1
2017-Jun-22 22:30N 40°40' W 074°02'0 0.0
2017-Jun-22 22:00N 40°40' W 074°02'0 0.0
2017-Jun-22 21:30N 40°40' W 074°02'0 0.0
2017-Jun-22 21:00N 40°40' W 074°02'0 0.3
2017-Jun-22 20:31N 40°40' W 074°03'1 2.6
2017-Jun-22 20:01N 40°39' W 074°04'4 7.3
2017-Jun-22 19:30N 40°38' W 074°09'1 1.8
2017-Jun-22 19:00N 40°38' W 074°10'0 0.0
2017-Jun-22 18:30N 40°38' W 074°10'0 0.0
2017-Jun-22 18:00N 40°38' W 074°10'0 0.0
2017-Jun-22 17:30N 40°38' W 074°10'0 0.0
2017-Jun-22 17:00N 40°38' W 074°10'0 0.0
2017-Jun-22 16:24N 40°38' W 074°10'0 0.0
2017-Jun-22 16:00N 40°38' W 074°10'0 0.0
2017-Jun-22 15:24N 40°38' W 074°10'0 0.0
2017-Jun-22 14:48N 40°38' W 074°10'0 0.1
2017-Jun-22 14:30N 40°38' W 074°10'0 0.0
2017-Jun-22 13:30N 40°38' W 074°10'0 0.0
2017-Jun-22 12:59N 40°38' W 074°10'0 0.0
2017-Jun-22 12:30N 40°38' W 074°10'0 0.0
2017-Jun-22 12:00N 40°38' W 074°10'1 2.4
2017-Jun-22 11:30N 40°39' W 074°08'5 9.1
2017-Jun-22 11:00N 40°40' W 074°03'0 0.1
2017-Jun-22 10:30N 40°40' W 074°02'0 0.0
2017-Jun-22 10:00N 40°40' W 074°02'0 0.1
2017-Jun-22 09:30N 40°40' W 074°03'0 0.3
2017-Jun-22 09:00N 40°40' W 074°03'0 0.1
2017-Jun-22 08:30N 40°40' W 074°03'0 0.0
2017-Jun-22 08:00N 40°40' W 074°03'0 0.0
2017-Jun-22 07:30N 40°40' W 074°03'0 0.0
2017-Jun-22 07:00N 40°40' W 074°03'0 0.1
2017-Jun-22 06:30N 40°40' W 074°03'0 0.0
2017-Jun-22 06:00N 40°40' W 074°03'0 0.0
2017-Jun-22 05:27N 40°40' W 074°03'0 0.0
2017-Jun-22 05:00N 40°40' W 074°03'0 0.0
2017-Jun-22 04:30N 40°40' W 074°03'0 0.0
2017-Jun-22 04:00N 40°40' W 074°03'0 0.0
2017-Jun-22 03:30N 40°40' W 074°03'0 0.0
2017-Jun-22 03:00N 40°40' W 074°03'0 0.1
2017-Jun-22 02:27N 40°40' W 074°03'0 0.1
2017-Jun-22 02:00N 40°40' W 074°03'0 0.3
2017-Jun-22 01:30N 40°40' W 074°02'0 0.1
2017-Jun-22 01:00N 40°40' W 074°02'0 0.1
2017-Jun-22 00:30N 40°40' W 074°02'0 0.0
2017-Jun-22 00:00N 40°40' W 074°02'0 0.0
2017-Jun-21 23:30N 40°40' W 074°02'0 0.0
2017-Jun-21 23:00N 40°40' W 074°02'0 0.1
2017-Jun-21 22:30N 40°40' W 074°02'0 0.1
2017-Jun-21 22:00N 40°40' W 074°02'4 8.8
2017-Jun-21 21:30N 40°39' W 074°08'1 2.3
2017-Jun-21 20:52N 40°38' W 074°10'0 0.0
2017-Jun-21 20:28N 40°38' W 074°10'0 0.0
2017-Jun-21 19:55N 40°38' W 074°10'0 0.0
2017-Jun-21 19:28N 40°38' W 074°10'0 0.0
2017-Jun-21 18:52N 40°38' W 074°10'0 0.0
2017-Jun-21 18:25N 40°38' W 074°10'0 0.0
2017-Jun-21 17:58N 40°38' W 074°10'0 0.0
2017-Jun-21 17:28N 40°38' W 074°10'0 0.0
2017-Jun-21 16:58N 40°38' W 074°10'0 0.0
2017-Jun-21 16:29N 40°38' W 074°10'0 0.0
2017-Jun-21 16:00N 40°38' W 074°10'0 0.0
2017-Jun-21 15:30N 40°38' W 074°10'0 0.0
2017-Jun-21 15:00N 40°38' W 074°10'0 0.0
2017-Jun-21 14:30N 40°38' W 074°10'1 0.9
2017-Jun-21 13:30N 40°38' W 074°09'4 9.0
2017-Jun-21 13:00N 40°40' W 074°03'1 1.0
2017-Jun-21 12:30N 40°40' W 074°02'0 0.2
2017-Jun-21 12:00N 40°40' W 074°02'3 5.9
2017-Jun-21 11:30N 40°37' W 074°03'2 2.8
2017-Jun-21 10:58N 40°36' W 074°01'0 0.1
2017-Jun-21 10:28N 40°36' W 074°01'0 0.0
2017-Jun-21 09:58N 40°36' W 074°01'0 0.0
2017-Jun-21 09:25N 40°36' W 074°01'0 0.1
2017-Jun-21 08:55N 40°36' W 074°01'0 0.2
2017-Jun-21 08:28N 40°36' W 074°01'0 0.1
2017-Jun-21 07:58N 40°36' W 074°01'0 0.1
2017-Jun-21 07:28N 40°36' W 074°02'0 0.2
2017-Jun-21 06:58N 40°36' W 074°02'0 0.2
2017-Jun-21 06:28N 40°36' W 074°01'0 0.0
2017-Jun-21 05:58N 40°36' W 074°01'0 0.1
2017-Jun-21 05:28N 40°36' W 074°01'0 0.0
2017-Jun-21 04:40N 40°36' W 074°02'0 0.2
2017-Jun-21 04:28N 40°36' W 074°02'0 0.3
2017-Jun-21 03:58N 40°36' W 074°01'0 0.2
2017-Jun-21 03:28N 40°36' W 074°01'0 0.1
2017-Jun-21 02:58N 40°36' W 074°01'0 0.0
2017-Jun-21 02:28N 40°36' W 074°01'0 0.0
2017-Jun-21 01:58N 40°36' W 074°01'0 0.0
2017-Jun-21 01:25N 40°36' W 074°01'0 0.0
2017-Jun-21 00:58N 40°36' W 074°01'0 0.0
2017-Jun-21 00:28N 40°36' W 074°01'0 0.0
2017-Jun-20 23:58N 40°36' W 074°01'0 0.0
2017-Jun-20 23:28N 40°36' W 074°01'0 0.0
2017-Jun-20 22:58N 40°36' W 074°01'0 0.1
2017-Jun-20 22:28N 40°36' W 074°01'0 0.0
2017-Jun-20 21:55N 40°36' W 074°01'0 0.0
2017-Jun-20 21:28N 40°36' W 074°01'0 0.0
2017-Jun-20 20:58N 40°36' W 074°01'0 0.0
2017-Jun-20 20:28N 40°36' W 074°01'0 0.0
2017-Jun-20 19:58N 40°36' W 074°01'0 0.1
2017-Jun-20 19:28N 40°36' W 074°01'0 0.2
2017-Jun-20 18:52N 40°36' W 074°01'0 0.1
2017-Jun-20 18:25N 40°36' W 074°01'0 0.2
2017-Jun-20 17:58N 40°36' W 074°01'0 0.1
2017-Jun-20 17:28N 40°36' W 074°01'0 0.0
2017-Jun-20 16:58N 40°36' W 074°01'0 0.1
2017-Jun-20 16:28N 40°36' W 074°01'0 0.1
2017-Jun-20 15:55N 40°36' W 074°01'0 0.1
2017-Jun-20 15:22N 40°36' W 074°01'0 0.0
2017-Jun-20 14:58N 40°36' W 074°01'0 0.1
2017-Jun-20 14:00N 40°36' W 074°01'0 0.0
2017-Jun-20 13:30N 40°36' W 074°01'0 0.0
2017-Jun-20 13:00N 40°36' W 074°01'1 1.9
2017-Jun-20 12:30N 40°35' W 074°02'4 7.1
2017-Jun-20 12:00N 40°31' W 074°02'  
Track history (hours):
 
Tides and Currents Weather Stations Pressure Air Temp Water Temp Dewpoint Dewpoint Depression Visibility Wind Speed Wind Dir Waves Ship Positions

Tasman Sea

Owner: Kirby Offshore Marine, LLC, Staten Island, NY. More information available from US FCC via Universal Licensing System and Coast Guard Vessel Documentation Center.

Last reported at 2017-Jun-28 21:02 UTC. Time now 2017-Jun-29 03:39 UTC.
Position N 40°29' W 074°08'.

Length 151 m; draft 6.7 m.

Type: . MMSI: 366910960.

Date/timePositionNaut miles runAvg speedWind from/ knotsBaromVisibWave heightAir tempDewpointWater temp
2017-Jun-28 21:02N 40°29' W 074°08'0 0.1
2017-Jun-28 20:47N 40°29' W 074°08'3 6.7
2017-Jun-28 20:23N 40°29' W 074°05'2 5.1
2017-Jun-28 19:59N 40°30' W 074°03'4 8.5
2017-Jun-28 19:30N 40°34' W 074°02'5 9.3
2017-Jun-28 19:00N 40°39' W 074°03'1 1.7
2017-Jun-28 18:31N 40°39' W 074°03'2 3.8
2017-Jun-28 18:00N 40°39' W 074°05'4 7.2
2017-Jun-28 17:30N 40°39' W 074°10'0 0.0
2017-Jun-28 16:54N 40°39' W 074°10'0 0.0
2017-Jun-28 16:27N 40°39' W 074°10'0 0.0
2017-Jun-28 16:00N 40°39' W 074°10'0 0.0
2017-Jun-28 15:30N 40°39' W 074°10'0 0.0
2017-Jun-28 14:57N 40°39' W 074°10'0 0.0
2017-Jun-28 14:21N 40°39' W 074°10'0 0.0
2017-Jun-28 13:30N 40°39' W 074°10'0 0.0
2017-Jun-28 13:00N 40°39' W 074°10'0 0.0
2017-Jun-28 12:30N 40°39' W 074°10'0 0.0
2017-Jun-28 12:00N 40°39' W 074°10'0 0.0
2017-Jun-28 11:31N 40°39' W 074°10'0 0.4
2017-Jun-28 11:00N 40°38' W 074°10'4 8.5
2017-Jun-28 10:30N 40°39' W 074°04'1 2.1
2017-Jun-28 09:58N 40°39' W 074°03'0 0.0
2017-Jun-28 09:28N 40°39' W 074°03'0 0.0
2017-Jun-28 08:58N 40°39' W 074°03'0 0.0
2017-Jun-28 08:28N 40°39' W 074°03'0 0.0
2017-Jun-28 07:58N 40°39' W 074°03'0 0.0
2017-Jun-28 07:28N 40°39' W 074°03'0 0.0
2017-Jun-28 06:58N 40°39' W 074°03'0 0.1
2017-Jun-28 06:28N 40°39' W 074°03'0 0.2
2017-Jun-28 05:58N 40°39' W 074°03'0 0.1
2017-Jun-28 05:28N 40°39' W 074°03'0 0.1
2017-Jun-28 04:58N 40°40' W 074°03'0 0.1
2017-Jun-28 04:28N 40°40' W 074°03'0 0.0
2017-Jun-28 03:58N 40°40' W 074°03'0 0.0
2017-Jun-28 03:28N 40°40' W 074°03'0 0.1
2017-Jun-28 02:58N 40°40' W 074°03'0 0.0
2017-Jun-28 02:28N 40°40' W 074°03'0 0.2
2017-Jun-28 01:58N 40°39' W 074°03'0 0.1
2017-Jun-28 01:28N 40°39' W 074°03'0 0.2
2017-Jun-28 00:58N 40°39' W 074°03'0 0.1
2017-Jun-28 00:28N 40°39' W 074°03'0 0.0
2017-Jun-27 23:58N 40°39' W 074°03'0 0.1
2017-Jun-27 23:28N 40°39' W 074°03'0 0.1
2017-Jun-27 22:58N 40°39' W 074°03'0 0.0
2017-Jun-27 22:28N 40°39' W 074°03'0 0.1
2017-Jun-27 21:58N 40°39' W 074°03'0 0.0
2017-Jun-27 21:28N 40°39' W 074°03'0 0.0
2017-Jun-27 20:58N 40°39' W 074°03'0 0.1
2017-Jun-27 20:28N 40°39' W 074°03'0 0.1
2017-Jun-27 19:58N 40°39' W 074°03'0 0.3
2017-Jun-27 19:28N 40°39' W 074°03'0 0.1
2017-Jun-27 18:58N 40°40' W 074°03'0 0.1
2017-Jun-27 18:28N 40°40' W 074°03'0 0.0
2017-Jun-27 17:58N 40°40' W 074°03'0 0.1
2017-Jun-27 17:28N 40°40' W 074°03'0 0.0
2017-Jun-27 16:58N 40°40' W 074°03'0 0.1
2017-Jun-27 16:28N 40°40' W 074°03'0 0.1
2017-Jun-27 15:58N 40°40' W 074°03'0 0.0
2017-Jun-27 15:28N 40°40' W 074°03'0 0.1
2017-Jun-27 15:01N 40°40' W 074°03'0 0.0
2017-Jun-27 14:31N 40°40' W 074°03'5 5.3
2017-Jun-27 13:30N 40°38' W 074°09'0 0.0
2017-Jun-27 13:01N 40°38' W 074°10'0 0.2
2017-Jun-27 12:31N 40°38' W 074°09'2 3.2
2017-Jun-27 12:00N 40°38' W 074°12'1 2.2
2017-Jun-27 11:30N 40°38' W 074°12'0 0.0
2017-Jun-27 10:56N 40°38' W 074°12'0 0.0
2017-Jun-27 10:26N 40°38' W 074°12'0 0.0
2017-Jun-27 09:56N 40°38' W 074°12'0 0.0
2017-Jun-27 09:26N 40°38' W 074°12'0 0.0
2017-Jun-27 08:56N 40°38' W 074°12'0 0.0
2017-Jun-27 08:26N 40°38' W 074°12'0 0.0
2017-Jun-27 07:59N 40°38' W 074°12'0 0.0
2017-Jun-27 07:26N 40°38' W 074°12'0 0.0
2017-Jun-27 06:56N 40°38' W 074°12'0 0.0
2017-Jun-27 06:26N 40°38' W 074°12'0 0.0
2017-Jun-27 05:56N 40°38' W 074°12'0 0.0
2017-Jun-27 05:20N 40°38' W 074°12'0 0.0
2017-Jun-27 04:56N 40°38' W 074°12'0 0.0
2017-Jun-27 04:26N 40°38' W 074°12'0 0.0
2017-Jun-27 03:56N 40°38' W 074°12'1 2.0
2017-Jun-27 03:30N 40°38' W 074°12'1 2.8
2017-Jun-27 03:00N 40°39' W 074°10'0 0.0
2017-Jun-27 02:27N 40°39' W 074°10'0 0.0
2017-Jun-27 02:00N 40°39' W 074°10'0 0.0
2017-Jun-27 01:30N 40°39' W 074°10'0 0.0
2017-Jun-27 01:00N 40°39' W 074°10'0 0.0
2017-Jun-27 00:27N 40°39' W 074°10'0 0.0
2017-Jun-27 00:00N 40°39' W 074°10'0 0.0
2017-Jun-26 23:30N 40°39' W 074°10'0 0.0
2017-Jun-26 23:00N 40°39' W 074°10'0 0.0
2017-Jun-26 22:30N 40°39' W 074°10'0 0.1
2017-Jun-26 22:00N 40°38' W 074°10'0 0.0
2017-Jun-26 21:30N 40°38' W 074°10'0 0.0
2017-Jun-26 21:01N 40°38' W 074°10'0 0.0
2017-Jun-26 20:30N 40°38' W 074°10'0 0.0
2017-Jun-26 19:59N 40°38' W 074°10'0 0.0
2017-Jun-26 19:30N 40°38' W 074°10'0 0.0
2017-Jun-26 18:59N 40°38' W 074°10'0 0.0
2017-Jun-26 18:30N 40°38' W 074°10'0 0.0
2017-Jun-26 18:01N 40°38' W 074°10'0 0.0
2017-Jun-26 17:31N 40°38' W 074°10'0 0.1
2017-Jun-26 16:58N 40°39' W 074°10'0 0.0
2017-Jun-26 16:28N 40°39' W 074°10'0 0.0
2017-Jun-26 15:58N 40°39' W 074°10'0 0.0
2017-Jun-26 15:30N 40°39' W 074°10'2 4.0
2017-Jun-26 15:00N 40°38' W 074°12'0 0.1
2017-Jun-26 14:29N 40°38' W 074°12'0 0.0
2017-Jun-26 13:26N 40°38' W 074°12'0 0.0
2017-Jun-26 12:44N 40°38' W 074°12'0 0.0
2017-Jun-26 12:20N 40°38' W 074°12'0 0.0
2017-Jun-26 11:38N 40°38' W 074°12'0 0.0
2017-Jun-26 11:20N 40°38' W 074°12'0 0.0
2017-Jun-26 10:56N 40°38' W 074°12'0 0.0
2017-Jun-26 10:26N 40°38' W 074°12'0 0.0
2017-Jun-26 09:59N 40°38' W 074°12'0 0.0
2017-Jun-26 09:26N 40°38' W 074°12'0 0.0
2017-Jun-26 08:56N 40°38' W 074°12'0 0.0
2017-Jun-26 08:20N 40°38' W 074°12'0 0.0
2017-Jun-26 07:56N 40°38' W 074°12'0 0.0
2017-Jun-26 07:26N 40°38' W 074°12'0 0.0
2017-Jun-26 06:56N 40°38' W 074°12'0 0.0
2017-Jun-26 06:26N 40°38' W 074°12'0 0.0
2017-Jun-26 05:56N 40°38' W 074°12'0 0.0
2017-Jun-26 05:26N 40°38' W 074°12'0 0.0
2017-Jun-26 04:56N 40°38' W 074°12'0 0.0
2017-Jun-26 04:29N 40°38' W 074°12'0 0.0
2017-Jun-26 03:59N 40°38' W 074°12'0 0.0
2017-Jun-26 03:29N 40°38' W 074°12'0 0.0
2017-Jun-26 02:59N 40°38' W 074°12'0 0.0
2017-Jun-26 02:29N 40°38' W 074°12'0 0.0
2017-Jun-26 01:59N 40°38' W 074°12'0 0.0
2017-Jun-26 01:20N 40°38' W 074°12'0 0.0
2017-Jun-26 00:56N 40°38' W 074°12'0 0.0
2017-Jun-26 00:26N 40°38' W 074°12'0 0.0
2017-Jun-26 00:00N 40°38' W 074°12'0 0.0
2017-Jun-25 23:29N 40°38' W 074°12'0 0.0
2017-Jun-25 23:00N 40°38' W 074°12'0 0.0
2017-Jun-25 22:30N 40°38' W 074°12'0 0.0
2017-Jun-25 21:56N 40°38' W 074°12'1 3.0
2017-Jun-25 21:30N 40°39' W 074°11'3 6.6
2017-Jun-25 21:00N 40°39' W 074°07'4 7.2
2017-Jun-25 20:30N 40°40' W 074°02'0 0.3
2017-Jun-25 19:58N 40°40' W 074°02'0 0.0
2017-Jun-25 19:28N 40°40' W 074°02'0 0.0
2017-Jun-25 18:58N 40°40' W 074°02'0 0.0
2017-Jun-25 18:28N 40°40' W 074°02'0 0.1
2017-Jun-25 18:00N 40°40' W 074°02'1 2.8
2017-Jun-25 17:30N 40°39' W 074°03'2 4.0
2017-Jun-25 17:00N 40°37' W 074°03'0 0.1
2017-Jun-25 16:25N 40°37' W 074°03'0 0.4
2017-Jun-25 15:58N 40°37' W 074°03'0 0.2
2017-Jun-25 15:28N 40°37' W 074°03'0 0.0
2017-Jun-24 19:45N 40°37' W 074°03'0 0.2
2017-Jun-24 19:30N 40°37' W 074°03'0 0.1
2017-Jun-24 19:00N 40°36' W 074°03'1 2.2
2017-Jun-24 18:30N 40°38' W 074°03'2 4.3
2017-Jun-24 18:00N 40°40' W 074°03'0 0.1
2017-Jun-24 17:30N 40°40' W 074°02'0 0.1
2017-Jun-24 17:00N 40°40' W 074°02'0 0.1
2017-Jun-24 16:30N 40°40' W 074°02'0 0.0
2017-Jun-24 16:00N 40°40' W 074°02'0 0.0
2017-Jun-24 15:30N 40°40' W 074°02'0 0.0
2017-Jun-24 15:00N 40°40' W 074°02'0 0.2
2017-Jun-24 14:00N 40°40' W 074°02'0 0.1
2017-Jun-24 13:30N 40°40' W 074°02'0 0.1
2017-Jun-24 13:00N 40°40' W 074°02'0 0.0
2017-Jun-24 12:30N 40°40' W 074°02'0 0.1
2017-Jun-24 12:00N 40°40' W 074°02'0 0.3
2017-Jun-24 11:30N 40°40' W 074°03'0 0.1
2017-Jun-24 11:00N 40°40' W 074°03'0 0.0
2017-Jun-24 10:30N 40°40' W 074°03'0 0.1
2017-Jun-24 10:00N 40°40' W 074°03'0 0.1
2017-Jun-24 09:30N 40°40' W 074°03'0 0.1
2017-Jun-24 09:00N 40°40' W 074°03'0 0.0
2017-Jun-24 08:30N 40°40' W 074°03'0 0.0
2017-Jun-24 08:00N 40°40' W 074°03'0 0.0
2017-Jun-24 07:27N 40°40' W 074°03'0 0.0
2017-Jun-24 07:00N 40°40' W 074°03'0 0.0
2017-Jun-24 06:30N 40°40' W 074°03'0 0.0
2017-Jun-24 06:00N 40°40' W 074°03'0 0.0
2017-Jun-24 05:30N 40°40' W 074°03'0 0.1
2017-Jun-24 05:00N 40°40' W 074°03'0 0.0
2017-Jun-24 04:30N 40°40' W 074°03'0 0.0
2017-Jun-24 04:00N 40°40' W 074°03'0 0.4
2017-Jun-24 03:30N 40°40' W 074°02'0 0.1
2017-Jun-24 03:00N 40°40' W 074°02'0 0.0
2017-Jun-24 02:30N 40°40' W 074°02'0 0.0
2017-Jun-24 02:00N 40°40' W 074°02'0 0.1
2017-Jun-24 01:30N 40°40' W 074°02'0 0.0
2017-Jun-24 01:00N 40°40' W 074°02'0 0.0
2017-Jun-24 00:30N 40°40' W 074°02'0 0.0
2017-Jun-24 00:00N 40°40' W 074°02'0 0.1
2017-Jun-23 23:30N 40°40' W 074°02'0 0.0
2017-Jun-23 23:00N 40°40' W 074°02'0 0.0
2017-Jun-23 22:30N 40°40' W 074°02'0 0.0
2017-Jun-23 22:00N 40°40' W 074°02'0 0.1
2017-Jun-23 21:30N 40°40' W 074°02'0 0.3
2017-Jun-23 21:00N 40°40' W 074°02'0 0.1
2017-Jun-23 20:30N 40°40' W 074°03'0 0.1
2017-Jun-23 20:00N 40°40' W 074°02'0 0.0
2017-Jun-23 19:30N 40°40' W 074°02'0 0.1
2017-Jun-23 19:00N 40°40' W 074°03'0 0.0
2017-Jun-23 18:30N 40°40' W 074°03'0 0.0
2017-Jun-23 18:00N 40°40' W 074°03'0 0.0
2017-Jun-23 17:30N 40°40' W 074°03'0 0.1
2017-Jun-23 17:00N 40°40' W 074°03'0 0.1
2017-Jun-23 16:30N 40°40' W 074°03'0 0.1
2017-Jun-23 16:00N 40°40' W 074°03'0 0.0
2017-Jun-23 15:30N 40°40' W 074°03'0 0.4
2017-Jun-23 15:00N 40°40' W 074°03'0 0.1
2017-Jun-23 14:00N 40°40' W 074°02'0 0.0
2017-Jun-23 13:30N 40°40' W 074°02'0 0.0
2017-Jun-23 13:00N 40°40' W 074°02'0 0.1
2017-Jun-23 12:30N 40°40' W 074°02'0 0.0
2017-Jun-23 12:00N 40°40' W 074°02'0 0.0
2017-Jun-23 11:30N 40°40' W 074°02'0 0.0
2017-Jun-23 11:00N 40°40' W 074°02'0 0.1
2017-Jun-23 10:30N 40°40' W 074°03'0 0.2
2017-Jun-23 10:00N 40°40' W 074°03'0 0.2
2017-Jun-23 09:30N 40°40' W 074°03'0 0.0
2017-Jun-23 09:00N 40°40' W 074°03'0 0.1
2017-Jun-23 08:30N 40°40' W 074°03'0 0.0
2017-Jun-23 08:00N 40°40' W 074°03'0 0.1
2017-Jun-23 07:30N 40°40' W 074°03'0 0.1
2017-Jun-23 07:00N 40°40' W 074°03'0 0.0
2017-Jun-23 06:30N 40°40' W 074°03'0 0.0
2017-Jun-23 06:00N 40°40' W 074°03'0 0.0
2017-Jun-23 05:30N 40°40' W 074°03'0 0.0
2017-Jun-23 05:00N 40°40' W 074°03'0 0.0
2017-Jun-23 04:30N 40°40' W 074°03'0 0.0
2017-Jun-23 04:00N 40°40' W 074°03'0 0.0
2017-Jun-23 03:30N 40°40' W 074°03'0 0.0
2017-Jun-23 03:00N 40°40' W 074°03'0 0.3
2017-Jun-23 02:30N 40°40' W 074°03'0 0.2
2017-Jun-23 02:00N 40°40' W 074°02'0 0.1
2017-Jun-23 01:30N 40°40' W 074°02'0 0.0
2017-Jun-23 01:00N 40°40' W 074°02'0 0.1
2017-Jun-23 00:30N 40°40' W 074°02'0 0.0
2017-Jun-23 00:00N 40°40' W 074°02'0 0.0
2017-Jun-22 23:30N 40°40' W 074°02'0 0.0
2017-Jun-22 23:00N 40°40' W 074°02'0 0.1
2017-Jun-22 22:30N 40°40' W 074°02'0 0.0
2017-Jun-22 22:00N 40°40' W 074°02'0 0.0
2017-Jun-22 21:30N 40°40' W 074°02'0 0.0
2017-Jun-22 21:00N 40°40' W 074°02'0 0.3
2017-Jun-22 20:31N 40°40' W 074°03'1 2.6
2017-Jun-22 20:01N 40°39' W 074°04'4 7.3
2017-Jun-22 19:30N 40°38' W 074°09'1 1.8
2017-Jun-22 19:00N 40°38' W 074°10'0 0.0
2017-Jun-22 18:30N 40°38' W 074°10'0 0.0
2017-Jun-22 18:00N 40°38' W 074°10'0 0.0
2017-Jun-22 17:30N 40°38' W 074°10'0 0.0
2017-Jun-22 17:00N 40°38' W 074°10'0 0.0
2017-Jun-22 16:24N 40°38' W 074°10'0 0.0
2017-Jun-22 16:00N 40°38' W 074°10'0 0.0
2017-Jun-22 15:24N 40°38' W 074°10'0 0.0
2017-Jun-22 14:48N 40°38' W 074°10'0 0.1
2017-Jun-22 14:30N 40°38' W 074°10'0 0.0
2017-Jun-22 13:30N 40°38' W 074°10'0 0.0
2017-Jun-22 12:59N 40°38' W 074°10'0 0.0
2017-Jun-22 12:30N 40°38' W 074°10'0 0.0
2017-Jun-22 12:00N 40°38' W 074°10'1 2.4
2017-Jun-22 11:30N 40°39' W 074°08'5 9.1
2017-Jun-22 11:00N 40°40' W 074°03'0 0.1
2017-Jun-22 10:30N 40°40' W 074°02'0 0.0
2017-Jun-22 10:00N 40°40' W 074°02'0 0.1
2017-Jun-22 09:30N 40°40' W 074°03'0 0.3
2017-Jun-22 09:00N 40°40' W 074°03'0 0.1
2017-Jun-22 08:30N 40°40' W 074°03'0 0.0
2017-Jun-22 08:00N 40°40' W 074°03'0 0.0
2017-Jun-22 07:30N 40°40' W 074°03'0 0.0
2017-Jun-22 07:00N 40°40' W 074°03'0 0.1
2017-Jun-22 06:30N 40°40' W 074°03'0 0.0
2017-Jun-22 06:00N 40°40' W 074°03'0 0.0
2017-Jun-22 05:27N 40°40' W 074°03'0 0.0
2017-Jun-22 05:00N 40°40' W 074°03'0 0.0
2017-Jun-22 04:30N 40°40' W 074°03'0 0.0
2017-Jun-22 04:00N 40°40' W 074°03'0 0.0
2017-Jun-22 03:30N 40°40' W 074°03'0 0.0
2017-Jun-22 03:00N 40°40' W 074°03'0 0.1
2017-Jun-22 02:27N 40°40' W 074°03'0 0.1
2017-Jun-22 02:00N 40°40' W 074°03'0 0.3
2017-Jun-22 01:30N 40°40' W 074°02'0 0.1
2017-Jun-22 01:00N 40°40' W 074°02'0 0.1
2017-Jun-22 00:30N 40°40' W 074°02'0 0.0
2017-Jun-22 00:00N 40°40' W 074°02'0 0.0
2017-Jun-21 23:30N 40°40' W 074°02'0 0.0
2017-Jun-21 23:00N 40°40' W 074°02'0 0.1
2017-Jun-21 22:30N 40°40' W 074°02'0 0.1
2017-Jun-21 22:00N 40°40' W 074°02'4 8.8
2017-Jun-21 21:30N 40°39' W 074°08'1 2.3
2017-Jun-21 20:52N 40°38' W 074°10'0 0.0
2017-Jun-21 20:28N 40°38' W 074°10'0 0.0
2017-Jun-21 19:55N 40°38' W 074°10'0 0.0
2017-Jun-21 19:28N 40°38' W 074°10'0 0.0
2017-Jun-21 18:52N 40°38' W 074°10'0 0.0
2017-Jun-21 18:25N 40°38' W 074°10'0 0.0
2017-Jun-21 17:58N 40°38' W 074°10'0 0.0
2017-Jun-21 17:28N 40°38' W 074°10'0 0.0
2017-Jun-21 16:58N 40°38' W 074°10'0 0.0
2017-Jun-21 16:29N 40°38' W 074°10'0 0.0
2017-Jun-21 16:00N 40°38' W 074°10'0 0.0
2017-Jun-21 15:30N 40°38' W 074°10'0 0.0
2017-Jun-21 15:00N 40°38' W 074°10'0 0.0
2017-Jun-21 14:30N 40°38' W 074°10'1 0.9
2017-Jun-21 13:30N 40°38' W 074°09'4 9.0
2017-Jun-21 13:00N 40°40' W 074°03'1 1.0
2017-Jun-21 12:30N 40°40' W 074°02'0 0.2
2017-Jun-21 12:00N 40°40' W 074°02'3 5.9
2017-Jun-21 11:30N 40°37' W 074°03'2 2.8
2017-Jun-21 10:58N 40°36' W 074°01'0 0.1
2017-Jun-21 10:28N 40°36' W 074°01'0 0.0
2017-Jun-21 09:58N 40°36' W 074°01'0 0.0
2017-Jun-21 09:25N 40°36' W 074°01'0 0.1
2017-Jun-21 08:55N 40°36' W 074°01'0 0.2
2017-Jun-21 08:28N 40°36' W 074°01'0 0.1
2017-Jun-21 07:58N 40°36' W 074°01'0 0.1
2017-Jun-21 07:28N 40°36' W 074°02'0 0.2
2017-Jun-21 06:58N 40°36' W 074°02'0 0.2
2017-Jun-21 06:28N 40°36' W 074°01'0 0.0
2017-Jun-21 05:58N 40°36' W 074°01'0 0.1
2017-Jun-21 05:28N 40°36' W 074°01'0 0.0
2017-Jun-21 04:40N 40°36' W 074°02'0 0.2
2017-Jun-21 04:28N 40°36' W 074°02'0 0.3
2017-Jun-21 03:58N 40°36' W 074°01'0 0.2
2017-Jun-21 03:28N 40°36' W 074°01'0 0.1
2017-Jun-21 02:58N 40°36' W 074°01'0 0.0
2017-Jun-21 02:28N 40°36' W 074°01'0 0.0
2017-Jun-21 01:58N 40°36' W 074°01'0 0.0
2017-Jun-21 01:25N 40°36' W 074°01'0 0.0
2017-Jun-21 00:58N 40°36' W 074°01'0 0.0
2017-Jun-21 00:28N 40°36' W 074°01'0 0.0
2017-Jun-20 23:58N 40°36' W 074°01'0 0.0
2017-Jun-20 23:28N 40°36' W 074°01'0 0.0
2017-Jun-20 22:58N 40°36' W 074°01'0 0.1
2017-Jun-20 22:28N 40°36' W 074°01'0 0.0
2017-Jun-20 21:55N 40°36' W 074°01'0 0.0
2017-Jun-20 21:28N 40°36' W 074°01'0 0.0
2017-Jun-20 20:58N 40°36' W 074°01'0 0.0
2017-Jun-20 20:28N 40°36' W 074°01'0 0.0
2017-Jun-20 19:58N 40°36' W 074°01'0 0.1
2017-Jun-20 19:28N 40°36' W 074°01'0 0.2
2017-Jun-20 18:52N 40°36' W 074°01'0 0.1
2017-Jun-20 18:25N 40°36' W 074°01'0 0.2
2017-Jun-20 17:58N 40°36' W 074°01'0 0.1
2017-Jun-20 17:28N 40°36' W 074°01'0 0.0
2017-Jun-20 16:58N 40°36' W 074°01'0 0.1
2017-Jun-20 16:28N 40°36' W 074°01'0 0.1
2017-Jun-20 15:55N 40°36' W 074°01'0 0.1
2017-Jun-20 15:22N 40°36' W 074°01'0 0.0
2017-Jun-20 14:58N 40°36' W 074°01'0 0.1
2017-Jun-20 14:00N 40°36' W 074°01'0 0.0
2017-Jun-20 13:30N 40°36' W 074°01'0 0.0
2017-Jun-20 13:00N 40°36' W 074°01'1 1.9
2017-Jun-20 12:30N 40°35' W 074°02'4 7.1
2017-Jun-20 12:00N 40°31' W 074°02'  

Dump ship's entire track history